sensor_id;sensor_type;location;lat;lon;timestamp;temperature;humidity
6377;DHT22;3221;48.858;10.128;2023-08-08T00:02:15;11.40;99.90
6377;DHT22;3221;48.858;10.128;2023-08-08T00:04:42;11.60;99.90
6377;DHT22;3221;48.858;10.128;2023-08-08T00:07:09;11.50;99.90
6377;DHT22;3221;48.858;10.128;2023-08-08T00:09:36;11.40;99.90
6377;DHT22;3221;48.858;10.128;2023-08-08T00:12:04;11.50;99.90
6377;DHT22;3221;48.858;10.128;2023-08-08T00:14:31;11.50;99.90
6377;DHT22;3221;48.858;10.128;2023-08-08T00:16:58;11.50;99.90
6377;DHT22;3221;48.858;10.128;2023-08-08T00:19:25;11.40;99.90
6377;DHT22;3221;48.858;10.128;2023-08-08T00:21:52;11.70;99.90
6377;DHT22;3221;48.858;10.128;2023-08-08T00:24:19;11.40;99.90
6377;DHT22;3221;48.858;10.128;2023-08-08T00:26:46;11.40;99.90
6377;DHT22;3221;48.858;10.128;2023-08-08T00:29:13;11.40;99.90
6377;DHT22;3221;48.858;10.128;2023-08-08T00:31:40;11.50;99.90
6377;DHT22;3221;48.858;10.128;2023-08-08T00:34:07;11.40;99.90
6377;DHT22;3221;48.858;10.128;2023-08-08T00:36:34;11.30;99.90
6377;DHT22;3221;48.858;10.128;2023-08-08T00:39:01;11.40;99.90
6377;DHT22;3221;48.858;10.128;2023-08-08T00:41:28;11.40;99.90
6377;DHT22;3221;48.858;10.128;2023-08-08T00:43:56;11.40;99.90
6377;DHT22;3221;48.858;10.128;2023-08-08T00:46:23;11.40;99.90
6377;DHT22;3221;48.858;10.128;2023-08-08T00:48:52;11.20;99.90
6377;DHT22;3221;48.858;10.128;2023-08-08T00:51:20;11.30;99.90
6377;DHT22;3221;48.858;10.128;2023-08-08T00:53:47;11.40;99.90
6377;DHT22;3221;48.858;10.128;2023-08-08T00:56:16;11.40;99.90
6377;DHT22;3221;48.858;10.128;2023-08-08T00:58:44;11.40;99.90
6377;DHT22;3221;48.858;10.128;2023-08-08T01:01:17;11.30;99.90
6377;DHT22;3221;48.858;10.128;2023-08-08T01:03:45;11.30;99.90
6377;DHT22;3221;48.858;10.128;2023-08-08T01:09:07;11.30;99.90
6377;DHT22;3221;48.858;10.128;2023-08-08T01:11:36;11.30;99.90
6377;DHT22;3221;48.858;10.128;2023-08-08T01:14:05;11.40;99.90
6377;DHT22;3221;48.858;10.128;2023-08-08T01:16:34;11.50;99.90
6377;DHT22;3221;48.858;10.128;2023-08-08T01:19:01;11.50;99.90
6377;DHT22;3221;48.858;10.128;2023-08-08T01:21:29;11.50;99.90
6377;DHT22;3221;48.858;10.128;2023-08-08T01:24:22;11.60;99.90
6377;DHT22;3221;48.858;10.128;2023-08-08T01:26:50;11.50;99.90
6377;DHT22;3221;48.858;10.128;2023-08-08T01:29:17;11.40;99.90
6377;DHT22;3221;48.858;10.128;2023-08-08T01:31:45;11.50;99.90
6377;DHT22;3221;48.858;10.128;2023-08-08T01:34:12;11.40;99.90
6377;DHT22;3221;48.858;10.128;2023-08-08T01:37:09;11.40;99.90
6377;DHT22;3221;48.858;10.128;2023-08-08T01:39:38;11.30;99.90
6377;DHT22;3221;48.858;10.128;2023-08-08T01:42:06;11.50;99.90
6377;DHT22;3221;48.858;10.128;2023-08-08T01:44:33;11.50;99.90
6377;DHT22;3221;48.858;10.128;2023-08-08T01:47:01;11.40;99.90
6377;DHT22;3221;48.858;10.128;2023-08-08T01:49:28;11.50;99.90
6377;DHT22;3221;48.858;10.128;2023-08-08T01:51:55;11.60;99.90
6377;DHT22;3221;48.858;10.128;2023-08-08T01:54:23;11.40;99.90
6377;DHT22;3221;48.858;10.128;2023-08-08T01:56:50;11.50;99.90
6377;DHT22;3221;48.858;10.128;2023-08-08T01:59:17;11.40;99.90
6377;DHT22;3221;48.858;10.128;2023-08-08T02:01:44;11.30;99.90
6377;DHT22;3221;48.858;10.128;2023-08-08T02:04:11;11.40;99.90
6377;DHT22;3221;48.858;10.128;2023-08-08T02:06:38;11.40;99.90
6377;DHT22;3221;48.858;10.128;2023-08-08T02:09:05;11.60;99.90
6377;DHT22;3221;48.858;10.128;2023-08-08T02:11:34;11.40;99.90
6377;DHT22;3221;48.858;10.128;2023-08-08T02:14:01;11.50;99.90
6377;DHT22;3221;48.858;10.128;2023-08-08T02:16:28;11.30;99.90
6377;DHT22;3221;48.858;10.128;2023-08-08T02:18:55;11.30;99.90
6377;DHT22;3221;48.858;10.128;2023-08-08T02:21:22;11.20;99.90
6377;DHT22;3221;48.858;10.128;2023-08-08T02:23:49;11.20;99.90
6377;DHT22;3221;48.858;10.128;2023-08-08T02:26:16;11.30;99.90
6377;DHT22;3221;48.858;10.128;2023-08-08T02:28:43;11.20;99.90
6377;DHT22;3221;48.858;10.128;2023-08-08T02:31:10;11.40;99.90
6377;DHT22;3221;48.858;10.128;2023-08-08T02:33:37;11.40;99.90
6377;DHT22;3221;48.858;10.128;2023-08-08T02:36:04;11.40;99.90
6377;DHT22;3221;48.858;10.128;2023-08-08T02:38:31;11.30;99.90
6377;DHT22;3221;48.858;10.128;2023-08-08T02:40:58;11.30;99.90
6377;DHT22;3221;48.858;10.128;2023-08-08T02:43:26;11.40;99.90
6377;DHT22;3221;48.858;10.128;2023-08-08T02:45:53;11.50;99.90
6377;DHT22;3221;48.858;10.128;2023-08-08T02:48:20;11.30;99.90
6377;DHT22;3221;48.858;10.128;2023-08-08T02:50:47;11.30;99.90
6377;DHT22;3221;48.858;10.128;2023-08-08T02:53:16;11.50;99.90
6377;DHT22;3221;48.858;10.128;2023-08-08T02:55:47;11.50;99.90
6377;DHT22;3221;48.858;10.128;2023-08-08T02:58:15;11.20;99.90
6377;DHT22;3221;48.858;10.128;2023-08-08T03:00:43;11.50;99.90
6377;DHT22;3221;48.858;10.128;2023-08-08T03:03:13;11.30;99.90
6377;DHT22;3221;48.858;10.128;2023-08-08T03:05:44;11.20;99.90
6377;DHT22;3221;48.858;10.128;2023-08-08T03:08:11;11.30;99.90
6377;DHT22;3221;48.858;10.128;2023-08-08T03:10:38;11.40;99.90
6377;DHT22;3221;48.858;10.128;2023-08-08T03:13:05;11.50;99.90
6377;DHT22;3221;48.858;10.128;2023-08-08T03:15:32;11.40;99.90
6377;DHT22;3221;48.858;10.128;2023-08-08T03:18:02;11.30;99.90
6377;DHT22;3221;48.858;10.128;2023-08-08T03:20:30;11.50;99.90
6377;DHT22;3221;48.858;10.128;2023-08-08T03:22:57;11.50;99.90
6377;DHT22;3221;48.858;10.128;2023-08-08T03:25:24;11.40;99.90
6377;DHT22;3221;48.858;10.128;2023-08-08T03:27:51;11.50;99.90
6377;DHT22;3221;48.858;10.128;2023-08-08T03:30:19;11.40;99.90
6377;DHT22;3221;48.858;10.128;2023-08-08T03:32:47;11.50;99.90
6377;DHT22;3221;48.858;10.128;2023-08-08T03:35:14;11.50;99.90
6377;DHT22;3221;48.858;10.128;2023-08-08T03:37:43;11.40;99.90
6377;DHT22;3221;48.858;10.128;2023-08-08T03:40:11;11.30;99.90
6377;DHT22;3221;48.858;10.128;2023-08-08T03:42:40;11.30;99.90
6377;DHT22;3221;48.858;10.128;2023-08-08T03:45:08;11.30;99.90
6377;DHT22;3221;48.858;10.128;2023-08-08T03:47:35;11.30;99.90
6377;DHT22;3221;48.858;10.128;2023-08-08T03:50:02;11.30;99.90
6377;DHT22;3221;48.858;10.128;2023-08-08T03:52:31;11.30;99.90
6377;DHT22;3221;48.858;10.128;2023-08-08T03:55:01;11.30;99.90
6377;DHT22;3221;48.858;10.128;2023-08-08T03:57:28;11.30;99.90
6377;DHT22;3221;48.858;10.128;2023-08-08T03:59:55;11.30;99.90
6377;DHT22;3221;48.858;10.128;2023-08-08T04:02:24;11.20;99.90
6377;DHT22;3221;48.858;10.128;2023-08-08T04:04:52;11.30;99.90
6377;DHT22;3221;48.858;10.128;2023-08-08T04:07:19;11.30;99.90
6377;DHT22;3221;48.858;10.128;2023-08-08T04:09:48;11.30;99.90
6377;DHT22;3221;48.858;10.128;2023-08-08T04:12:15;11.30;99.90
6377;DHT22;3221;48.858;10.128;2023-08-08T04:14:42;11.30;99.90
6377;DHT22;3221;48.858;10.128;2023-08-08T04:17:09;11.30;99.90
6377;DHT22;3221;48.858;10.128;2023-08-08T04:19:36;11.30;99.90
6377;DHT22;3221;48.858;10.128;2023-08-08T04:22:03;11.40;99.90
6377;DHT22;3221;48.858;10.128;2023-08-08T04:24:30;11.20;99.90
6377;DHT22;3221;48.858;10.128;2023-08-08T04:26:57;11.30;99.90
6377;DHT22;3221;48.858;10.128;2023-08-08T04:29:24;11.40;99.90
6377;DHT22;3221;48.858;10.128;2023-08-08T04:31:51;11.30;99.90
6377;DHT22;3221;48.858;10.128;2023-08-08T04:34:18;11.20;99.90
6377;DHT22;3221;48.858;10.128;2023-08-08T04:36:45;11.30;99.90
6377;DHT22;3221;48.858;10.128;2023-08-08T04:39:12;11.30;99.90
6377;DHT22;3221;48.858;10.128;2023-08-08T04:41:39;11.20;99.90
6377;DHT22;3221;48.858;10.128;2023-08-08T04:44:06;11.30;99.90
6377;DHT22;3221;48.858;10.128;2023-08-08T04:46:33;11.30;99.90
6377;DHT22;3221;48.858;10.128;2023-08-08T04:49:00;11.50;99.90
6377;DHT22;3221;48.858;10.128;2023-08-08T04:51:27;11.30;99.90
6377;DHT22;3221;48.858;10.128;2023-08-08T04:53:54;11.60;99.90
6377;DHT22;3221;48.858;10.128;2023-08-08T04:56:21;11.30;99.90
6377;DHT22;3221;48.858;10.128;2023-08-08T04:58:48;11.20;99.90
6377;DHT22;3221;48.858;10.128;2023-08-08T05:01:15;11.40;99.90
6377;DHT22;3221;48.858;10.128;2023-08-08T05:03:44;11.30;99.90
6377;DHT22;3221;48.858;10.128;2023-08-08T05:06:11;11.20;99.90
6377;DHT22;3221;48.858;10.128;2023-08-08T05:08:38;11.30;99.90
6377;DHT22;3221;48.858;10.128;2023-08-08T05:11:05;11.30;99.90
6377;DHT22;3221;48.858;10.128;2023-08-08T05:13:32;11.30;99.90
6377;DHT22;3221;48.858;10.128;2023-08-08T05:15:59;11.30;99.90
6377;DHT22;3221;48.858;10.128;2023-08-08T05:18:26;11.30;99.90
6377;DHT22;3221;48.858;10.128;2023-08-08T05:20:53;11.50;99.90
6377;DHT22;3221;48.858;10.128;2023-08-08T05:23:20;11.50;99.90
6377;DHT22;3221;48.858;10.128;2023-08-08T05:25:47;11.40;99.90
6377;DHT22;3221;48.858;10.128;2023-08-08T05:28:14;11.60;99.90
6377;DHT22;3221;48.858;10.128;2023-08-08T05:30:41;11.50;99.90
6377;DHT22;3221;48.858;10.128;2023-08-08T05:33:08;11.50;99.90
6377;DHT22;3221;48.858;10.128;2023-08-08T05:35:35;11.70;99.90
6377;DHT22;3221;48.858;10.128;2023-08-08T05:38:02;11.60;99.90
6377;DHT22;3221;48.858;10.128;2023-08-08T05:40:30;11.60;99.90
6377;DHT22;3221;48.858;10.128;2023-08-08T05:42:57;11.50;99.90
6377;DHT22;3221;48.858;10.128;2023-08-08T05:45:23;11.50;99.90
6377;DHT22;3221;48.858;10.128;2023-08-08T05:47:50;11.70;99.90
6377;DHT22;3221;48.858;10.128;2023-08-08T05:50:17;11.80;99.90
6377;DHT22;3221;48.858;10.128;2023-08-08T05:52:44;11.60;99.90
6377;DHT22;3221;48.858;10.128;2023-08-08T05:55:11;11.90;99.90
6377;DHT22;3221;48.858;10.128;2023-08-08T05:57:38;11.60;99.90
6377;DHT22;3221;48.858;10.128;2023-08-08T06:00:06;11.60;99.90
6377;DHT22;3221;48.858;10.128;2023-08-08T06:02:38;11.50;99.90
6377;DHT22;3221;48.858;10.128;2023-08-08T06:05:06;11.50;99.90
6377;DHT22;3221;48.858;10.128;2023-08-08T06:07:33;11.50;99.90
6377;DHT22;3221;48.858;10.128;2023-08-08T06:10:00;11.60;99.90
6377;DHT22;3221;48.858;10.128;2023-08-08T06:12:27;11.60;99.90
6377;DHT22;3221;48.858;10.128;2023-08-08T06:14:54;11.50;99.90
6377;DHT22;3221;48.858;10.128;2023-08-08T06:17:21;11.80;99.90
6377;DHT22;3221;48.858;10.128;2023-08-08T06:19:50;11.90;99.90
6377;DHT22;3221;48.858;10.128;2023-08-08T06:22:17;11.80;99.90
6377;DHT22;3221;48.858;10.128;2023-08-08T06:24:44;11.70;99.90
6377;DHT22;3221;48.858;10.128;2023-08-08T06:27:12;11.70;99.90
6377;DHT22;3221;48.858;10.128;2023-08-08T06:29:40;11.70;99.90
6377;DHT22;3221;48.858;10.128;2023-08-08T06:32:07;11.70;99.90
6377;DHT22;3221;48.858;10.128;2023-08-08T06:34:34;11.90;99.90
6377;DHT22;3221;48.858;10.128;2023-08-08T06:37:01;12.00;99.90
6377;DHT22;3221;48.858;10.128;2023-08-08T06:39:28;11.90;99.90
6377;DHT22;3221;48.858;10.128;2023-08-08T06:41:55;11.90;99.90
6377;DHT22;3221;48.858;10.128;2023-08-08T06:44:32;12.00;99.90
6377;DHT22;3221;48.858;10.128;2023-08-08T06:46:59;12.00;99.90
6377;DHT22;3221;48.858;10.128;2023-08-08T06:49:26;12.20;99.90
6377;DHT22;3221;48.858;10.128;2023-08-08T06:51:53;12.10;99.90
6377;DHT22;3221;48.858;10.128;2023-08-08T06:54:20;12.10;99.90
6377;DHT22;3221;48.858;10.128;2023-08-08T06:56:46;12.30;99.90
6377;DHT22;3221;48.858;10.128;2023-08-08T06:59:13;12.20;99.90
6377;DHT22;3221;48.858;10.128;2023-08-08T07:01:40;12.30;99.90
6377;DHT22;3221;48.858;10.128;2023-08-08T07:04:07;12.20;99.90
6377;DHT22;3221;48.858;10.128;2023-08-08T07:06:34;12.40;99.90
6377;DHT22;3221;48.858;10.128;2023-08-08T07:09:01;12.20;99.90
6377;DHT22;3221;48.858;10.128;2023-08-08T07:11:28;12.40;99.90
6377;DHT22;3221;48.858;10.128;2023-08-08T07:13:55;12.50;99.90
6377;DHT22;3221;48.858;10.128;2023-08-08T07:16:22;12.60;99.90
6377;DHT22;3221;48.858;10.128;2023-08-08T07:18:48;12.40;99.90
6377;DHT22;3221;48.858;10.128;2023-08-08T07:21:19;12.40;99.90
6377;DHT22;3221;48.858;10.128;2023-08-08T07:23:46;12.50;99.90
6377;DHT22;3221;48.858;10.128;2023-08-08T07:26:12;12.60;99.90
6377;DHT22;3221;48.858;10.128;2023-08-08T07:28:39;12.60;99.90
6377;DHT22;3221;48.858;10.128;2023-08-08T07:31:06;12.60;99.90
6377;DHT22;3221;48.858;10.128;2023-08-08T07:33:33;12.80;99.90
6377;DHT22;3221;48.858;10.128;2023-08-08T07:36:00;12.90;99.90
6377;DHT22;3221;48.858;10.128;2023-08-08T07:38:27;12.90;99.90
6377;DHT22;3221;48.858;10.128;2023-08-08T07:40:53;13.00;99.90
6377;DHT22;3221;48.858;10.128;2023-08-08T07:43:20;12.90;99.90
6377;DHT22;3221;48.858;10.128;2023-08-08T07:45:47;13.00;99.90
6377;DHT22;3221;48.858;10.128;2023-08-08T07:48:14;13.10;99.90
6377;DHT22;3221;48.858;10.128;2023-08-08T07:50:41;13.10;99.90
6377;DHT22;3221;48.858;10.128;2023-08-08T07:53:08;13.20;99.90
6377;DHT22;3221;48.858;10.128;2023-08-08T07:55:35;13.10;99.90
6377;DHT22;3221;48.858;10.128;2023-08-08T07:58:01;13.10;99.90
6377;DHT22;3221;48.858;10.128;2023-08-08T08:00:28;13.10;99.90
6377;DHT22;3221;48.858;10.128;2023-08-08T08:02:55;13.30;99.90
6377;DHT22;3221;48.858;10.128;2023-08-08T08:05:23;13.30;99.90
6377;DHT22;3221;48.858;10.128;2023-08-08T08:07:50;13.30;99.90
6377;DHT22;3221;48.858;10.128;2023-08-08T08:10:16;13.40;99.90
6377;DHT22;3221;48.858;10.128;2023-08-08T08:12:43;13.40;99.90
6377;DHT22;3221;48.858;10.128;2023-08-08T08:15:10;13.40;99.90
6377;DHT22;3221;48.858;10.128;2023-08-08T08:17:37;13.50;99.90
6377;DHT22;3221;48.858;10.128;2023-08-08T08:20:05;13.60;99.90
6377;DHT22;3221;48.858;10.128;2023-08-08T08:22:37;13.60;99.90
6377;DHT22;3221;48.858;10.128;2023-08-08T08:25:06;13.50;99.90
6377;DHT22;3221;48.858;10.128;2023-08-08T08:27:36;13.70;99.90
6377;DHT22;3221;48.858;10.128;2023-08-08T08:30:04;13.80;99.90
6377;DHT22;3221;48.858;10.128;2023-08-08T08:32:33;13.80;99.90
6377;DHT22;3221;48.858;10.128;2023-08-08T08:35:03;13.80;99.90
6377;DHT22;3221;48.858;10.128;2023-08-08T08:37:30;13.90;99.90
6377;DHT22;3221;48.858;10.128;2023-08-08T08:39:57;13.80;99.90
6377;DHT22;3221;48.858;10.128;2023-08-08T08:42:24;13.80;99.90
6377;DHT22;3221;48.858;10.128;2023-08-08T08:44:57;13.90;99.90
6377;DHT22;3221;48.858;10.128;2023-08-08T08:47:25;14.00;99.90
6377;DHT22;3221;48.858;10.128;2023-08-08T08:49:52;14.00;99.90
6377;DHT22;3221;48.858;10.128;2023-08-08T08:52:20;14.20;99.90
6377;DHT22;3221;48.858;10.128;2023-08-08T08:54:47;14.20;99.90
6377;DHT22;3221;48.858;10.128;2023-08-08T08:57:14;14.10;99.90
6377;DHT22;3221;48.858;10.128;2023-08-08T08:59:42;14.10;99.90
6377;DHT22;3221;48.858;10.128;2023-08-08T09:02:09;14.20;99.90
6377;DHT22;3221;48.858;10.128;2023-08-08T09:04:37;14.10;99.90
6377;DHT22;3221;48.858;10.128;2023-08-08T09:07:06;14.20;99.90
6377;DHT22;3221;48.858;10.128;2023-08-08T09:09:33;14.30;99.90
6377;DHT22;3221;48.858;10.128;2023-08-08T09:12:02;14.20;99.90
6377;DHT22;3221;48.858;10.128;2023-08-08T09:14:30;14.10;99.90
6377;DHT22;3221;48.858;10.128;2023-08-08T09:16:57;14.20;99.90
6377;DHT22;3221;48.858;10.128;2023-08-08T09:19:24;14.10;99.90
6377;DHT22;3221;48.858;10.128;2023-08-08T09:21:52;14.20;99.90
6377;DHT22;3221;48.858;10.128;2023-08-08T09:24:19;14.10;99.90
6377;DHT22;3221;48.858;10.128;2023-08-08T09:26:46;14.20;99.90
6377;DHT22;3221;48.858;10.128;2023-08-08T09:29:14;14.30;99.90
6377;DHT22;3221;48.858;10.128;2023-08-08T09:31:42;14.20;99.90
6377;DHT22;3221;48.858;10.128;2023-08-08T09:34:09;14.30;99.90
6377;DHT22;3221;48.858;10.128;2023-08-08T09:36:36;14.40;99.90
6377;DHT22;3221;48.858;10.128;2023-08-08T09:39:04;14.50;99.90
6377;DHT22;3221;48.858;10.128;2023-08-08T09:41:32;14.50;99.90
6377;DHT22;3221;48.858;10.128;2023-08-08T09:43:59;14.50;99.90
6377;DHT22;3221;48.858;10.128;2023-08-08T09:46:29;14.50;99.90
6377;DHT22;3221;48.858;10.128;2023-08-08T09:48:57;14.50;99.90
6377;DHT22;3221;48.858;10.128;2023-08-08T09:51:25;14.60;99.90
6377;DHT22;3221;48.858;10.128;2023-08-08T09:53:53;14.50;99.90
6377;DHT22;3221;48.858;10.128;2023-08-08T09:56:23;14.60;99.90
6377;DHT22;3221;48.858;10.128;2023-08-08T09:58:50;14.70;99.90
6377;DHT22;3221;48.858;10.128;2023-08-08T10:01:19;14.70;99.90
6377;DHT22;3221;48.858;10.128;2023-08-08T10:03:47;14.80;99.90
6377;DHT22;3221;48.858;10.128;2023-08-08T10:06:15;14.60;99.90
6377;DHT22;3221;48.858;10.128;2023-08-08T10:08:42;14.80;99.90
6377;DHT22;3221;48.858;10.128;2023-08-08T10:11:10;14.90;99.90
6377;DHT22;3221;48.858;10.128;2023-08-08T10:13:46;14.90;99.90
6377;DHT22;3221;48.858;10.128;2023-08-08T10:16:16;14.90;99.90
6377;DHT22;3221;48.858;10.128;2023-08-08T10:18:54;14.90;99.90
6377;DHT22;3221;48.858;10.128;2023-08-08T10:21:24;14.90;99.90
6377;DHT22;3221;48.858;10.128;2023-08-08T10:24:05;15.00;99.90
6377;DHT22;3221;48.858;10.128;2023-08-08T10:26:34;15.00;99.90
6377;DHT22;3221;48.858;10.128;2023-08-08T10:29:01;15.10;99.90
6377;DHT22;3221;48.858;10.128;2023-08-08T10:31:33;15.20;99.90
6377;DHT22;3221;48.858;10.128;2023-08-08T10:34:03;15.10;99.90
6377;DHT22;3221;48.858;10.128;2023-08-08T10:36:47;15.20;99.90
6377;DHT22;3221;48.858;10.128;2023-08-08T10:39:15;15.20;99.90
6377;DHT22;3221;48.858;10.128;2023-08-08T10:41:45;15.40;99.90
6377;DHT22;3221;48.858;10.128;2023-08-08T10:44:12;15.40;99.90
6377;DHT22;3221;48.858;10.128;2023-08-08T10:46:41;15.30;99.90
6377;DHT22;3221;48.858;10.128;2023-08-08T10:49:08;15.40;99.90
6377;DHT22;3221;48.858;10.128;2023-08-08T10:51:40;15.40;99.90
6377;DHT22;3221;48.858;10.128;2023-08-08T10:54:14;15.50;99.90
6377;DHT22;3221;48.858;10.128;2023-08-08T10:56:48;15.50;99.90
6377;DHT22;3221;48.858;10.128;2023-08-08T10:59:16;15.70;99.90
6377;DHT22;3221;48.858;10.128;2023-08-08T11:01:48;15.80;99.90
6377;DHT22;3221;48.858;10.128;2023-08-08T11:04:22;15.90;99.90
6377;DHT22;3221;48.858;10.128;2023-08-08T11:06:52;15.90;99.90
6377;DHT22;3221;48.858;10.128;2023-08-08T11:09:20;15.90;99.90
6377;DHT22;3221;48.858;10.128;2023-08-08T11:11:48;15.90;99.90
6377;DHT22;3221;48.858;10.128;2023-08-08T11:14:17;15.90;99.90
6377;DHT22;3221;48.858;10.128;2023-08-08T11:16:46;16.00;99.90
6377;DHT22;3221;48.858;10.128;2023-08-08T11:19:13;16.00;99.90
6377;DHT22;3221;48.858;10.128;2023-08-08T11:21:43;16.00;99.90
6377;DHT22;3221;48.858;10.128;2023-08-08T11:24:12;16.10;99.90
6377;DHT22;3221;48.858;10.128;2023-08-08T11:26:41;16.00;99.90
6377;DHT22;3221;48.858;10.128;2023-08-08T11:29:08;16.00;99.90
6377;DHT22;3221;48.858;10.128;2023-08-08T11:31:35;15.80;99.90
6377;DHT22;3221;48.858;10.128;2023-08-08T11:34:03;15.80;99.90
6377;DHT22;3221;48.858;10.128;2023-08-08T11:36:33;15.90;99.90
6377;DHT22;3221;48.858;10.128;2023-08-08T11:39:04;15.90;99.90
6377;DHT22;3221;48.858;10.128;2023-08-08T11:41:36;16.10;99.90
6377;DHT22;3221;48.858;10.128;2023-08-08T11:44:03;16.10;99.90
6377;DHT22;3221;48.858;10.128;2023-08-08T11:46:31;16.20;99.90
6377;DHT22;3221;48.858;10.128;2023-08-08T11:49:03;16.10;99.90
6377;DHT22;3221;48.858;10.128;2023-08-08T11:51:32;16.20;99.90
6377;DHT22;3221;48.858;10.128;2023-08-08T11:53:59;16.30;99.90
6377;DHT22;3221;48.858;10.128;2023-08-08T11:56:27;16.40;99.90
6377;DHT22;3221;48.858;10.128;2023-08-08T11:58:55;16.40;99.90
6377;DHT22;3221;48.858;10.128;2023-08-08T12:01:24;16.50;99.90
6377;DHT22;3221;48.858;10.128;2023-08-08T12:03:51;16.50;99.90
6377;DHT22;3221;48.858;10.128;2023-08-08T12:06:18;16.40;99.90
6377;DHT22;3221;48.858;10.128;2023-08-08T12:08:47;16.50;99.90
6377;DHT22;3221;48.858;10.128;2023-08-08T12:11:15;16.50;99.90
6377;DHT22;3221;48.858;10.128;2023-08-08T12:13:44;16.50;99.90
6377;DHT22;3221;48.858;10.128;2023-08-08T12:16:12;16.40;99.90
6377;DHT22;3221;48.858;10.128;2023-08-08T12:18:43;16.30;99.90
6377;DHT22;3221;48.858;10.128;2023-08-08T12:21:11;16.40;99.90
6377;DHT22;3221;48.858;10.128;2023-08-08T12:23:38;16.50;99.90
6377;DHT22;3221;48.858;10.128;2023-08-08T12:26:06;16.40;99.90
6377;DHT22;3221;48.858;10.128;2023-08-08T12:28:34;16.60;99.90
6377;DHT22;3221;48.858;10.128;2023-08-08T12:31:01;16.60;99.90
6377;DHT22;3221;48.858;10.128;2023-08-08T12:33:28;16.60;99.90
6377;DHT22;3221;48.858;10.128;2023-08-08T12:35:55;16.60;99.90
6377;DHT22;3221;48.858;10.128;2023-08-08T12:38:22;16.60;99.90
6377;DHT22;3221;48.858;10.128;2023-08-08T12:40:49;16.60;99.90
6377;DHT22;3221;48.858;10.128;2023-08-08T12:43:16;16.60;99.90
6377;DHT22;3221;48.858;10.128;2023-08-08T12:45:45;16.70;99.90
6377;DHT22;3221;48.858;10.128;2023-08-08T12:48:12;16.70;99.90
6377;DHT22;3221;48.858;10.128;2023-08-08T12:50:39;16.70;99.90
6377;DHT22;3221;48.858;10.128;2023-08-08T12:53:07;16.70;99.90
6377;DHT22;3221;48.858;10.128;2023-08-08T12:55:34;16.80;99.90
6377;DHT22;3221;48.858;10.128;2023-08-08T12:58:02;16.80;99.90
6377;DHT22;3221;48.858;10.128;2023-08-08T13:00:29;16.90;99.90
6377;DHT22;3221;48.858;10.128;2023-08-08T13:02:56;17.10;99.90
6377;DHT22;3221;48.858;10.128;2023-08-08T13:05:25;17.00;99.90
6377;DHT22;3221;48.858;10.128;2023-08-08T13:07:52;17.00;99.90
6377;DHT22;3221;48.858;10.128;2023-08-08T13:10:19;17.10;99.90
6377;DHT22;3221;48.858;10.128;2023-08-08T13:12:47;17.20;99.90
6377;DHT22;3221;48.858;10.128;2023-08-08T13:15:14;17.20;99.90
6377;DHT22;3221;48.858;10.128;2023-08-08T13:17:41;17.30;99.90
6377;DHT22;3221;48.858;10.128;2023-08-08T13:20:09;17.20;99.90
6377;DHT22;3221;48.858;10.128;2023-08-08T13:22:36;17.20;99.90
6377;DHT22;3221;48.858;10.128;2023-08-08T13:25:03;17.10;99.90
6377;DHT22;3221;48.858;10.128;2023-08-08T13:27:32;17.30;99.90
6377;DHT22;3221;48.858;10.128;2023-08-08T13:29:59;17.40;99.90
6377;DHT22;3221;48.858;10.128;2023-08-08T13:32:26;17.40;99.90
6377;DHT22;3221;48.858;10.128;2023-08-08T13:34:53;17.40;99.90
6377;DHT22;3221;48.858;10.128;2023-08-08T13:37:20;17.40;99.90
6377;DHT22;3221;48.858;10.128;2023-08-08T13:39:47;17.50;99.90
6377;DHT22;3221;48.858;10.128;2023-08-08T13:42:14;17.50;99.90
6377;DHT22;3221;48.858;10.128;2023-08-08T13:44:40;17.40;99.90
6377;DHT22;3221;48.858;10.128;2023-08-08T13:47:07;17.40;99.90
6377;DHT22;3221;48.858;10.128;2023-08-08T13:49:34;17.40;99.90
6377;DHT22;3221;48.858;10.128;2023-08-08T13:52:02;17.60;99.90
6377;DHT22;3221;48.858;10.128;2023-08-08T13:54:30;17.60;99.90
6377;DHT22;3221;48.858;10.128;2023-08-08T13:56:57;17.60;99.90
6377;DHT22;3221;48.858;10.128;2023-08-08T13:59:24;17.60;99.90
6377;DHT22;3221;48.858;10.128;2023-08-08T14:01:51;17.60;99.90
6377;DHT22;3221;48.858;10.128;2023-08-08T14:04:18;17.70;99.90
6377;DHT22;3221;48.858;10.128;2023-08-08T14:06:45;17.80;99.90
6377;DHT22;3221;48.858;10.128;2023-08-08T14:09:12;17.90;99.90
6377;DHT22;3221;48.858;10.128;2023-08-08T14:11:42;17.80;99.90
6377;DHT22;3221;48.858;10.128;2023-08-08T14:14:08;17.80;99.90
6377;DHT22;3221;48.858;10.128;2023-08-08T14:16:35;17.70;99.90
6377;DHT22;3221;48.858;10.128;2023-08-08T14:19:02;17.70;99.90
6377;DHT22;3221;48.858;10.128;2023-08-08T14:21:30;17.90;99.90
6377;DHT22;3221;48.858;10.128;2023-08-08T14:23:57;17.80;99.90
6377;DHT22;3221;48.858;10.128;2023-08-08T14:26:24;17.90;99.90
6377;DHT22;3221;48.858;10.128;2023-08-08T14:28:50;18.00;99.90
6377;DHT22;3221;48.858;10.128;2023-08-08T14:31:17;17.90;99.90
6377;DHT22;3221;48.858;10.128;2023-08-08T14:33:44;17.90;99.90
6377;DHT22;3221;48.858;10.128;2023-08-08T14:36:11;18.10;99.90
6377;DHT22;3221;48.858;10.128;2023-08-08T14:38:38;17.80;99.90
6377;DHT22;3221;48.858;10.128;2023-08-08T14:41:05;17.70;99.90
6377;DHT22;3221;48.858;10.128;2023-08-08T14:43:32;17.60;99.90
6377;DHT22;3221;48.858;10.128;2023-08-08T14:45:59;17.60;99.90
6377;DHT22;3221;48.858;10.128;2023-08-08T14:48:26;17.50;99.90
6377;DHT22;3221;48.858;10.128;2023-08-08T14:50:54;17.40;99.90
6377;DHT22;3221;48.858;10.128;2023-08-08T14:53:20;17.40;99.90
6377;DHT22;3221;48.858;10.128;2023-08-08T14:55:47;17.40;99.90
6377;DHT22;3221;48.858;10.128;2023-08-08T14:58:14;17.40;99.90
6377;DHT22;3221;48.858;10.128;2023-08-08T15:00:41;17.30;99.90
6377;DHT22;3221;48.858;10.128;2023-08-08T15:03:09;17.30;99.90
6377;DHT22;3221;48.858;10.128;2023-08-08T15:05:36;17.30;99.90
6377;DHT22;3221;48.858;10.128;2023-08-08T15:08:03;17.40;99.90
6377;DHT22;3221;48.858;10.128;2023-08-08T15:10:30;17.30;99.90
6377;DHT22;3221;48.858;10.128;2023-08-08T15:13:01;17.40;99.90
6377;DHT22;3221;48.858;10.128;2023-08-08T15:15:28;17.40;99.90
6377;DHT22;3221;48.858;10.128;2023-08-08T15:17:56;17.40;99.90
6377;DHT22;3221;48.858;10.128;2023-08-08T15:20:23;17.40;99.90
6377;DHT22;3221;48.858;10.128;2023-08-08T15:22:50;17.50;99.90
6377;DHT22;3221;48.858;10.128;2023-08-08T15:25:17;17.70;99.90
6377;DHT22;3221;48.858;10.128;2023-08-08T15:27:44;17.70;99.90
6377;DHT22;3221;48.858;10.128;2023-08-08T15:30:11;17.60;99.90
6377;DHT22;3221;48.858;10.128;2023-08-08T15:32:39;17.60;99.90
6377;DHT22;3221;48.858;10.128;2023-08-08T15:35:06;17.80;99.90
6377;DHT22;3221;48.858;10.128;2023-08-08T15:37:33;17.70;99.90
6377;DHT22;3221;48.858;10.128;2023-08-08T15:40:00;17.80;99.90
6377;DHT22;3221;48.858;10.128;2023-08-08T15:42:26;17.80;99.90
6377;DHT22;3221;48.858;10.128;2023-08-08T15:44:53;17.60;99.90
6377;DHT22;3221;48.858;10.128;2023-08-08T15:47:20;17.70;99.90
6377;DHT22;3221;48.858;10.128;2023-08-08T15:49:47;17.60;99.90
6377;DHT22;3221;48.858;10.128;2023-08-08T15:52:14;17.60;99.90